Latest Coastal Weather Observations for Cape Borda

IDS60701

Issued at 3:21 pm CDT Monday 6 December 2021 (issued every 10 minutes, with the page automatically refreshed every 10 minutes)

About coastal observations | Map of coastal stations | Coastal observations for SA | Marine services | Other Formats
Station Details ID: 022823 Name: CAPE BORDA Lat: -35.75 Lon: 136.60 Height: 158.0 m
Data from the previous 72 hours. | See also: Recent months at Cape Borda
Date/Time
CDT
Wind Sea
Height
m
Swell Vis
km
Cloud Weather Temp
°C
Press
MSL
hPa
Rain since
9am
mm
Dir  Spd
kts
Gust
kts
Height
m
Period
s
Dir
06/03:00pm SW 14 19 - - - - - - - 17.9 1013.4 0.0
06/02:30pm SW 14 18 - - - - - - - 17.7 1013.5 0.0
06/02:00pm SW 13 20 - - - - - - - 17.5 1013.4 0.0
06/01:30pm WSW 11 15 - - - - - - - 17.4 1013.5 0.0
06/01:00pm WSW 9 13 - - - - - - - 16.7 1013.6 0.0
06/12:30pm WSW 10 14 - - - - - - - 17.3 1013.8 0.0
06/12:00pm SW 11 13 - - - - - - - 17.0 1013.8 0.0
06/11:30am SW 9 15 - - - - - - - 16.5 1013.9 0.0
06/11:00am SW 10 13 - - - - - - - 16.5 1014.0 0.0
06/10:30am SW 13 18 - - - - - - - 16.6 1014.1 0.0
06/10:00am WSW 11 14 - - - - - - - 16.3 1013.9 0.0
06/09:30am SE 5 8 - - - - - - - 16.6 1013.4 0.0
06/09:00am S 8 11 - - - - - - - 15.8 1013.7 0.0
06/08:30am S 8 11 - - - - - - - 15.5 1013.6 0.0
06/08:00am ESE 8 10 - - - - - - - 14.6 1013.1 0.0
06/07:30am SE 9 11 - - - - - - - 13.6 1012.8 0.0
06/07:00am ESE 8 10 - - - - - - - 11.8 1012.8 0.0
06/06:30am ESE 9 10 - - - - - - - 10.1 1012.9 0.0
06/06:00am SE 9 10 - - - - - - - 10.0 1012.7 0.0
06/05:30am SE 10 11 - - - - - - - 9.8 1012.8 0.0
06/05:00am SSE 9 11 - - - - - - - 10.1 1013.0 0.0
06/04:30am SE 9 11 - - - - - - - 10.3 1013.2 0.0
06/04:00am SE 10 11 - - - - - - - 10.3 1013.3 0.0
06/03:30am SE 10 11 - - - - - - - 10.3 1013.7 0.0
06/03:00am SE 9 10 - - - - - - - 10.6 1014.0 0.0
06/02:30am SE 10 12 - - - - - - - 10.9 1013.8 0.0
06/02:00am SE 9 11 - - - - - - - 10.9 1014.3 0.0
06/01:30am SE 9 11 - - - - - - - 10.9 1014.7 0.0
06/01:00am SE 9 11 - - - - - - - 11.0 1015.1 0.0
06/12:30am ESE 10 13 - - - - - - - 11.4 1015.3 0.0
06/12:00am ESE 10 13 - - - - - - - 11.5 1015.6 0.0
 
Date/Time
CDT
Wind Sea
Height
m
Swell Vis
km
Cloud Weather Temp
°C
Press
MSL
hPa
Rain since
9am
mm
Dir  Spd
kts
Gust
kts
Height
m
Period
s
Dir
05/11:30pm ESE 11 15 - - - - - - - 11.8 1015.6 0.0
05/11:00pm SE 12 16 - - - - - - - 12.0 1015.6 0.0
05/10:30pm SE 11 15 - - - - - - - 12.2 1015.6 0.0
05/10:00pm SE 12 15 - - - - - - - 12.4 1015.7 0.0
05/09:30pm SE 12 16 - - - - - - - 12.7 1015.7 0.0
05/09:00pm SE 12 17 - - - - - - - 13.2 1016.0 0.0
05/08:30pm SE 13 17 - - - - - - - 14.0 1016.0 0.0
05/08:00pm SE 14 19 - - - - - - - 15.1 1015.9 0.0
05/07:30pm SE 15 19 - - - - - - - 16.3 1015.8 0.0
05/07:00pm SE 15 21 - - - - - - - 17.3 1015.6 0.0
05/06:30pm SE 13 19 - - - - - - - 17.3 1015.7 0.0
05/06:00pm SE 14 18 - - - - - - - 18.2 1016.1 0.0
05/05:30pm SE 14 19 - - - - - - - 18.4 1016.1 0.0
05/05:00pm SSE 16 23 - - - - - - - 19.1 1016.0 0.0
05/04:30pm SSE 16 22 - - - - - - - 20.4 1016.1 0.0
05/04:00pm SSE 12 17 - - - - - - - 19.9 1016.4 0.0
05/03:30pm SW 16 21 - - - - - - - 18.3 1016.8 0.0
05/03:00pm WSW 13 18 - - - - - - - 18.0 1017.9 0.0
05/02:30pm WSW 11 13 - - - - - - - 17.0 1018.4 0.0
05/02:00pm W 9 12 - - - - - - - 17.5 1018.8 0.0
05/01:30pm WSW 10 13 - - - - - - - 17.4 1019.2 0.0
05/01:00pm W 9 11 - - - - - - - 17.2 1019.5 0.0
05/12:30pm W 9 11 - - - - - - - 17.5 1019.7 0.0
05/12:00pm W 9 11 - - - - - - - 17.3 1019.7 0.0
05/11:30am N 7 10 - - - - - - - 16.7 1020.0 0.0
05/11:00am N 7 10 - - - - - - - 16.9 1020.2 0.0
05/10:30am N 6 9 - - - - - - - 15.9 1020.5 0.0
05/10:00am N 6 8 - - - - - - - 15.3 1020.8 0.0
05/09:30am N 5 7 - - - - - - - 15.0 1021.1 0.0
05/09:00am NE 5 7 - - - - - - - 15.3 1021.4 -
05/08:30am E 6 10 - - - - - - - 14.8 1021.4 -
05/08:00am ESE 5 8 - - - - - - - 14.9 1021.3 -
05/07:30am E 6 8 - - - - - - - 13.9 1021.1 -
05/07:00am ESE 6 7 - - - - - - - 11.7 1021.1 0.0
05/06:30am ESE 7 8 - - - - - - - 11.2 1021.0 0.0
05/06:00am SE 9 10 - - - - - - - 11.2 1020.8 0.0
05/05:30am SE 11 13 - - - - - - - 11.4 1020.4 0.0
05/05:00am SE 9 11 - - - - - - - 11.0 1020.5 0.0
05/04:30am SE 9 11 - - - - - - - 11.1 1020.7 0.0
05/04:00am SE 8 10 - - - - - - - 11.4 1020.5 0.0
05/03:30am SE 9 10 - - - - - - - 11.4 1020.6 0.0
05/03:00am SE 10 12 - - - - - - - 11.5 1020.7 0.0
05/02:30am SE 11 14 - - - - - - - 11.4 1020.8 0.0
05/02:00am SE 11 13 - - - - - - - 11.2 1021.1 0.0
05/01:30am SE 11 13 - - - - - - - 11.3 1021.2 0.0
05/01:00am SE 11 14 - - - - - - - 11.4 1021.6 0.0
05/12:30am SE 11 13 - - - - - - - 11.5 1022.3 0.0
05/12:00am SE 11 14 - - - - - - - 11.7 1022.5 0.0
 
Date/Time
CDT
Wind Sea
Height
m
Swell Vis
km
Cloud Weather Temp
°C
Press
MSL
hPa
Rain since
9am
mm
Dir  Spd
kts
Gust
kts
Height
m
Period
s
Dir
04/11:30pm SE 11 13 - - - - - - - 11.9 1022.8 0.0
04/11:00pm SSE 11 13 - - - - - - - 12.2 1022.8 0.0
04/10:30pm SE 9 11 - - - - - - - 12.0 1022.9 0.0
04/10:00pm SSE 10 11 - - - - - - - 11.9 1022.7 0.0
04/09:30pm SE 8 10 - - - - - - - 12.5 1022.5 0.0
04/09:00pm SE 11 15 - - - - - - - 13.6 1022.2 0.0
04/08:30pm SSE 9 13 - - - - - - - 14.5 1022.4 0.0
04/08:00pm S 10 14 - - - - - - - 15.1 1022.6 0.0
04/07:30pm S 10 13 - - - - - - - 15.2 1022.4 0.0
04/07:00pm SSW 12 15 - - - - - - - 15.2 1022.3 0.0
04/06:30pm SW 14 19 - - - - - - - 15.4 1022.2 0.0
04/06:00pm SW 15 19 - - - - - - - 16.6 1021.9 0.0
04/05:30pm SW 14 19 - - - - - - - 15.9 1021.9 0.0
04/05:00pm SW 13 17 - - - - - - - 16.9 1021.9 0.0
04/04:30pm SSW 14 20 - - - - - - - 16.6 1022.2 0.0
04/04:00pm SSW 15 22 - - - - - - - 17.0 1022.1 0.0
04/03:30pm SSW 15 19 - - - - - - - 16.7 1022.9 0.0
04/03:00pm SW 14 19 - - - - - - - 18.1 1023.4 0.0
04/02:30pm SW 14 19 - - - - - - - 17.0 1023.5 0.0
04/02:00pm SSW 14 19 - - - - - - - 16.3 1023.5 0.0
04/01:30pm SW 14 18 - - - - - - - 16.8 1023.6 0.0
04/01:00pm SW 13 17 - - - - - - - 16.8 1023.9 0.0
04/12:30pm SW 12 17 - - - - - - - 16.5 1024.2 0.0
04/12:00pm SW 13 17 - - - - - - - 15.4 1024.4 0.0
04/11:30am SSW 10 15 - - - - - - - 16.2 1024.3 0.0
04/11:00am S 11 15 - - - - - - - 15.7 1024.1 0.0
04/10:30am S 10 15 - - - - - - - 15.5 1023.8 0.0
04/10:00am S 12 16 - - - - - - - 15.5 1023.6 0.0
04/09:30am S 10 16 - - - - - - - 15.8 1023.7 0.0
04/09:00am S 11 15 - - - - - - - 14.8 1023.8 0.0
04/08:30am S 11 16 - - - - - - - 14.1 1023.8 0.0
04/08:00am S 9 14 - - - - - - - 14.3 1023.5 0.0
04/07:30am S 10 14 - - - - - - - 14.0 1023.1 0.0
04/07:00am S 9 13 - - - - - - - 13.3 1022.8 0.0
04/06:30am SSW 7 11 - - - - - - - 13.1 1022.5 0.0
04/06:00am S 8 11 - - - - - - - 12.5 1022.4 0.0
04/05:30am S 7 9 - - - - - - - 11.3 1022.2 0.0
04/05:00am S 8 10 - - - - - - - 10.8 1022.0 0.0
04/04:30am S 9 10 - - - - - - - 10.7 1021.8 0.0
04/04:00am S 7 8 - - - - - - - 10.6 1021.8 0.0
04/03:30am S 8 11 - - - - - - - 11.8 1021.8 0.0
04/03:00am S 7 9 - - - - - - - 11.8 1021.7 0.0
04/02:30am S 8 11 - - - - - - - 11.0 1021.7 0.0
04/02:00am S 8 9 - - - - - - - 10.6 1021.9 0.0
04/01:30am S 9 10 - - - - - - - 10.0 1022.2 0.0
04/01:00am SSE 7 8 - - - - - - - 9.8 1022.4 0.0
04/12:30am S 8 9 - - - - - - - 10.0 1022.5 0.0
04/12:00am SSE 7 10 - - - - - - - 10.5 1022.6 0.0
 
Date/Time
CDT
Wind Sea
Height
m
Swell Vis
km
Cloud Weather Temp
°C
Press
MSL
hPa
Rain since
9am
mm
Dir  Spd
kts
Gust
kts
Height
m
Period
s
Dir
03/11:30pm S 9 12 - - - - - - - 11.1 1022.7 0.0
03/11:00pm S 8 9 - - - - - - - 10.7 1022.7 0.0
03/10:30pm S 6 8 - - - - - - - 11.0 1022.8 0.0
03/10:00pm S 7 8 - - - - - - - 11.1 1022.7 0.0
03/09:30pm S 7 8 - - - - - - - 11.0 1022.5 0.0
03/09:00pm SSE 7 9 - - - - - - - 11.4 1022.1 0.0
03/08:30pm S 9 12 - - - - - - - 12.4 1022.1 0.0
03/08:00pm S 10 13 - - - - - - - 13.5 1022.0 0.0
03/07:30pm S 12 18 - - - - - - - 14.1 1021.9 0.0
03/07:00pm S 14 20 - - - - - - - 15.0 1021.7 0.0
03/06:30pm S 13 17 - - - - - - - 15.3 1021.6 0.0
03/06:00pm SSW 14 19 - - - - - - - 15.6 1021.5 0.0
03/05:30pm S 14 19 - - - - - - - 16.4 1021.3 0.0
03/05:00pm S 13 19 - - - - - - - 16.8 1020.9 0.0
03/04:30pm SSW 14 19 - - - - - - - 17.1 1020.9 0.0
03/04:00pm S 15 22 - - - - - - - 17.0 1020.7 0.0
03/03:30pm SSW 15 21 - - - - - - - 17.7 1021.4 0.0

Other formats

Comma delimited format used in spreadsheet applications
http://www.bom.gov.au/fwo/IDS60701/IDS60701.95805.axf

JavaScript Object Notation format (JSON) in row-major order
http://www.bom.gov.au/fwo/IDS60701/IDS60701.95805.json

Data quality

Most of these data are generated automatically and are frequently updated. Quality checks on data are not normally performed. It is possible for incorrect values to appear. Refer to information at About Latest Weather Observations and please check the disclaimer before using these data.